EBCI - Charleroi/Gosselies, Belgium
Distance de la station: NE 18km
Mise à jour: 29/05/2017 05:50
clair
clair
 Wind from SSE
Vent: SSE 9 km/h
Température: 20°C
Point de rosée: 16°C
Humidité: 78%
Baromètre: 1013 hPa
Résumé: clair
Visibilité: greater than 10 km
2017/05/29 03:50 EBCI 290350Z 16005KT CAVOK 20/16 Q1013 NOSIG
EBFS - Florennes, Belgium
Distance de la station: ESE 31km
Mise à jour: 29/05/2017 05:25
partiellement nuageux
partiellement nuageux
 Wind from E
Vent: E 7 km/h
Température: 20°C
Point de rosée: 15°C
Humidité: 73%
Baromètre: 1014 hPa
Ciel: partiellement nuageux
Visibilité: 10 km
Détails du ciel: quelques nuages 1219 m
partiellement nuageux 7620 m
2017/05/29 03:25 EBFS 290325Z 09004KT 9999 FEW040 SCT250 20/15 Q1014 BLU
EBCV - Chievres, Belgium
Distance de la station: NO 40km
Mise à jour: 29/05/2017 05:46
clair
clair
 Wind from varies
Vent: varies 2 km/h
Température: 19°C
Point de rosée: 16°C
Humidité: 83%
Baromètre: 1012 hPa
Ciel: clair
Visibilité: 5 km
2017/05/29 03:46 EBCV 290346Z AUTO VRB01KT 4700 NCD 19/16 Q1012 GRN
 
EBBE - Beauvechain, Belgium
Distance de la station: NE 57km
Mise à jour: 29/05/2017 05:25
partiellement nuageux
partiellement nuageux
 Wind from E
Vent: E 9 km/h
Température: 19°C
Point de rosée: 18°C
Humidité: 94%
Baromètre: 1013 hPa
Ciel: partiellement nuageux
Visibilité: 7 km
Détails du ciel: quelques nuages 3658 m
partiellement nuageux 4877 m
2017/05/29 03:25 EBBE 290325Z AUTO 10005KT 7000 FEW120/// SCT160/// 19/18 Q1013 WHT
EBBR - Brussels National, Belgium
Distance de la station: NNE 63km
Mise à jour: 29/05/2017 05:50
clair
clair
 Wind from varies
Vent: varies 4 km/h
Température: 17°C
Point de rosée: 16°C
Humidité: 94%
Baromètre: 1012 hPa
Résumé: clair
Visibilité: greater than 10 km
2017/05/29 03:50 EBBR 290350Z VRB02KT CAVOK 17/16 Q1012 NOSIG
LFQI - Cambrai/Epinoy, France
Distance de la station: O 82km
Mise à jour: 29/06/2012 12:30
NOT Current

 Wind from SO
Vent: SO 17 km/h
Température: 18°C
Point de rosée: 14°C
Humidité: 78%
Baromètre: 1009 hPa
2012/06/29 10:30 LFQI 291030Z AUTO 22009KT //// // ///////// 18/14 Q1009
 
LFQQ - Lille/Lesquin, France
Distance de la station: ONO 86km
Mise à jour: 29/05/2017 05:30
clair
clair
 Wind from N
Vent: N 19 km/h
Température: 18°C
Point de rosée: 14°C
Humidité: 78%
Baromètre: 1012 hPa
Résumé: clair
Visibilité: greater than 10 km
2017/05/29 03:30 LFQQ 290330Z AUTO 01010KT CAVOK 18/14 Q1012 NOSIG
EBLG - Bierset/Liege, Belgium
Distance de la station: ENE 89km
Mise à jour: 29/05/2017 05:50
clair
clair
 Wind from SE
Vent: SE 13 km/h
Température: 21°C
Point de rosée: 16°C
Humidité: 73%
Baromètre: 1013 hPa
Résumé: clair
Visibilité: greater than 10 km
2017/05/29 03:50 EBLG 290350Z 14007KT CAVOK 21/16 Q1013 NOSIG
EBDT - Schaffen, Belgium
Distance de la station: NE 93km
Mise à jour: 29/05/2017 05:25
nuageux
nuageux
 Wind from E
Vent: E 7 km/h
Température: 19°C
Point de rosée: 17°C
Humidité: 88%
Baromètre: 1013 hPa
Ciel: nuageux
Visibilité: 10 km
Détails du ciel: quelques nuages 1829 m
partiellement nuageux 3658 m
nuageux 5486 m
2017/05/29 03:25 EBDT 290325Z 08004KT 9999 FEW060 SCT120 BKN180 19/17 Q1013 BLU
 
EBAW - Antwerp/Deurne, Belgium
Distance de la station: N 96km
Mise à jour: 29/05/2017 05:50
clair
clair
 Wind from E
Vent: E 13 km/h
Température: 18°C
Point de rosée: 13°C
Humidité: 73%
Baromètre: 1012 hPa
Résumé: clair
Visibilité: greater than 10 km
2017/05/29 03:50 EBAW 290350Z AUTO 08007KT CAVOK 18/13 Q1012
LFAQ - Bray, France
Distance de la station: OSO 119km
Mise à jour: 29/05/2017 05:30
partiellement nuageux
partiellement nuageux
 Wind from NNE
Vent: NNE 11 km/h
Température: 19°C
Point de rosée: 17°C
Humidité: 88%
Baromètre: 1012 hPa
Ciel: partiellement nuageux
Visibilité: 7 km
2017/05/29 03:30 LFAQ 290330Z AUTO 03006KT 7000 NSC 19/17 Q1012
LFSR - Reims/Champagne, France
Distance de la station: S 120km
Mise à jour: 16/04/2012 09:00
NOT Current
partiellement nuageux
partiellement nuageux
 Wind from N
Vent: N 17 km/h
Température: 4°C
Température ressentie: 0°C
Point de rosée: 0°C
Humidité: 75%
Baromètre: 1022 hPa
Ciel: partiellement nuageux
Visibilité: 10 km
2012/04/16 07:00 LFSR 160700Z AUTO 01009KT 340V070 9999 NSC 04/00 Q1022
 
EHWO - Woensdrecht, Netherlands
Distance de la station: N 122km
Mise à jour: 29/05/2017 05:55
nuageux
nuageux
 Wind from ENE
Vent: ENE 20 km/h
Température: 17°C
Point de rosée: 13°C
Humidité: 77%
Baromètre: 1012 hPa
Ciel: nuageux
Visibilité: 10 km
Détails du ciel: partiellement nuageux 2195 m
partiellement nuageux 2377 m
nuageux 2621 m
2017/05/29 03:55 EHWO 290355Z AUTO 07011KT 040V100 9999 SCT072 SCT078 BKN086 17/13 Q1012 BLU
EHBK - Zuid-Limburg, Netherlands
Distance de la station: ENE 123km
Mise à jour: 29/05/2017 05:25
quelques nuages
quelques nuages
 Wind from varies
Vent: varies 4 km/h
Température: 19°C
Point de rosée: 18°C
Humidité: 94%
Baromètre: 1014 hPa
Ciel: quelques nuages
Visibilité: 7 km
Détails du ciel: quelques nuages 457 m
2017/05/29 03:25 EHBK 290325Z AUTO VRB02KT 7000 FEW015CB 19/18 Q1014
EBBL - Kleine-Brogel, Belgium
Distance de la station: NE 124km
Mise à jour: 29/05/2017 05:25
partiellement nuageux
partiellement nuageux
 Wind from S
Vent: S 9 km/h
Température: 17°C
Point de rosée: 14°C
Humidité: 83%
Baromètre: 1013 hPa
Ciel: partiellement nuageux
Visibilité: 10 km
Détails du ciel: partiellement nuageux 2134 m
2017/05/29 03:25 EBBL 290325Z 19005KT 9999 SCT070 17/14 Q1013 BLU
 
EBLB - Elsenborn, Belgium
Distance de la station: E 135km
Mise à jour: 29/05/2017 05:33
nuageux
nuageux
 Wind from varies
Vent: varies 2 km/h
Température: 13°C
Point de rosée: 13°C
Humidité: 100%
Baromètre: 1017 hPa
Ciel: nuageux
Visibilité: 5 km
Détails du ciel: nuageux 3048 m
2017/05/29 03:33 EBLB 290333Z AUTO VRB01KT 5000 BKN100/// 13/13 Q1017 WHT
EBOS - Oostende Airport, Belgium
Distance de la station: NO 136km
Mise à jour: 29/05/2017 05:50
clair
clair
 Wind from NE
Vent: NE 19 km/h
Température: 17°C
Point de rosée: 14°C
Humidité: 83%
Baromètre: 1012 hPa
Résumé: clair
Visibilité: greater than 10 km
2017/05/29 03:50 EBOS 290350Z 05010KT CAVOK 17/14 Q1012 NOSIG
EBFN - Koksijde, Belgium
Distance de la station: NO 140km
Mise à jour: 29/05/2017 05:25
nuageux
nuageux
 Wind from NE
Vent: NE 15 km/h
Température: 16°C
Point de rosée: 14°C
Humidité: 88%
Baromètre: 1012 hPa
Ciel: nuageux
Visibilité: 10 km
Détails du ciel: quelques nuages 1067 m
nuageux 7010 m
2017/05/29 03:25 EBFN 290325Z 05008KT 9999 FEW035 BKN230 16/14 Q1012 BLU
 
ETNG - Geilenkirchen, Germany
Distance de la station: ENE 142km
Mise à jour: 29/05/2017 05:50
clair
clair
 Wind from E
Vent: E 6 km/h
Température: 19°C
Point de rosée: 18°C
Humidité: 94%
Baromètre: 1014 hPa
Résumé: clair
Visibilité: greater than 10 km
2017/05/29 03:50 ETNG 290350Z 09003KT CAVOK 19/18 Q1014
EHGR - Gilze-Rijen, Netherlands
Distance de la station: NNE 143km
Mise à jour: 29/05/2017 05:55
couvert
couvert
 Wind from ENE
Vent: ENE 11 km/h
Température: 17°C
Point de rosée: 13°C
Humidité: 77%
Baromètre: 1013 hPa
Ciel: couvert
Visibilité: 10 km
Détails du ciel: couvert 10058 m
2017/05/29 03:55 EHGR 290355Z AUTO 06006KT 360V100 9999 OVC330 17/13 Q1013 BLU
EHEH - Eindhoven, Netherlands
Distance de la station: NNE 147km
Mise à jour: 29/05/2017 05:25
couvert
couvert
 Wind from ENE
Vent: ENE 7 km/h
Température: 18°C
Point de rosée: 13°C
Humidité: 73%
Baromètre: 1013 hPa
Ciel: couvert
Visibilité: 10 km
Détails du ciel: couvert 2225 m
2017/05/29 03:25 EHEH 290325Z AUTO 07004KT 040V100 9999 OVC073 18/13 Q1013 BLU
 
ELLX - Luxembourg, Luxembourg
Distance de la station: ESE 162km
Mise à jour: 29/05/2017 05:50
clair
clair
 Wind from ESE
Vent: ESE 6 km/h
Température: 19°C
Point de rosée: 15°C
Humidité: 78%
Baromètre: 1015 hPa
Résumé: clair
Visibilité: greater than 10 km
2017/05/29 03:50 ELLX 290350Z 12003KT CAVOK 19/15 Q1015 NOSIG
EHVK - Volkel, Netherlands
Distance de la station: NE 174km
Mise à jour: 29/05/2017 05:55
nuageux
nuageux
 Wind from ENE
Vent: ENE 9 km/h
Température: 16°C
Point de rosée: 12°C
Humidité: 77%
Baromètre: 1013 hPa
Ciel: nuageux
Visibilité: 10 km
Détails du ciel: nuageux 2256 m
nuageux 2438 m
2017/05/29 03:55 EHVK 290355Z AUTO 06005KT 030V090 9999 BKN074 BKN080 16/12 Q1013 BLU
LFOK - Chalons/Vatry, France
Distance de la station: S 174km
Mise à jour: 29/05/2017 05:30
clair
clair
 Wind from S
Vent: S 11 km/h
Température: 16°C
Point de rosée: 13°C
Humidité: 83%
Baromètre: 1013 hPa
Résumé: clair
Visibilité: greater than 10 km
2017/05/29 03:30 LFOK 290330Z AUTO 18006KT CAVOK 16/13 Q1013 NOSIG

Script from Saratoga-Weather.org